createdAt,value
2022-09-07T00:02:08.869Z,1.73
2022-09-07T00:04:35.518Z,1.65
2022-09-07T00:07:02.100Z,1.92
2022-09-07T00:09:29.044Z,1.83
2022-09-07T00:11:55.620Z,1.58
2022-09-07T00:14:22.227Z,1.75
2022-09-07T00:16:48.803Z,1.70
2022-09-07T00:19:15.443Z,1.50
2022-09-07T00:21:42.026Z,1.55
2022-09-07T00:24:08.604Z,1.40
2022-09-07T00:26:35.440Z,1.85
2022-09-07T00:29:03.359Z,1.38
2022-09-07T00:31:30.875Z,1.80
2022-09-07T00:33:59.163Z,1.50
2022-09-07T00:36:26.073Z,1.60
2022-09-07T00:38:53.056Z,1.67
2022-09-07T00:41:20.554Z,1.63
2022-09-07T00:43:49.642Z,1.52
2022-09-07T00:46:24.950Z,1.73
2022-09-07T00:48:59.456Z,1.60
2022-09-07T00:51:40.060Z,1.83
2022-09-07T00:54:09.191Z,1.38
2022-09-07T00:56:39.272Z,1.42
2022-09-07T00:59:06.342Z,1.63
2022-09-07T01:01:34.172Z,1.60
2022-09-07T01:04:01.235Z,1.42
2022-09-07T01:06:38.458Z,1.90
2022-09-07T01:09:16.425Z,2.03
2022-09-07T01:11:45.764Z,1.98
2022-09-07T01:14:12.482Z,1.77
2022-09-07T01:16:49.140Z,1.80
2022-09-07T01:19:40.633Z,1.55
2022-09-07T01:22:44.741Z,1.90
2022-09-07T01:25:23.865Z,1.50
2022-09-07T01:28:05.619Z,1.73
2022-09-07T01:30:35.163Z,1.80
2022-09-07T01:33:23.605Z,2.00
2022-09-07T01:36:24.255Z,1.98
2022-09-07T01:38:54.548Z,2.55
2022-09-07T01:41:38.569Z,1.90
2022-09-07T01:44:18.426Z,2.65
2022-09-07T01:47:14.207Z,2.33
2022-09-07T01:49:48.078Z,2.22
2022-09-07T01:52:31.609Z,2.60
2022-09-07T01:55:07.249Z,2.80
2022-09-07T01:57:37.275Z,2.30
2022-09-07T02:00:12.921Z,2.92
2022-09-07T02:02:48.391Z,3.20
2022-09-07T02:05:23.934Z,3.50
2022-09-07T02:07:59.662Z,3.10
2022-09-07T02:10:36.127Z,3.10
2022-09-07T02:13:07.120Z,3.13
2022-09-07T02:15:47.292Z,3.05
2022-09-07T02:18:14.297Z,3.15
2022-09-07T02:20:45.081Z,3.28
2022-09-07T02:23:18.010Z,3.13
2022-09-07T02:25:47.290Z,2.80
2022-09-07T02:28:20.209Z,3.60
2022-09-07T02:30:46.829Z,3.40
2022-09-07T02:33:13.426Z,3.42
2022-09-07T02:35:40.106Z,3.17
2022-09-07T02:38:06.927Z,3.15
2022-09-07T02:40:33.576Z,3.63
2022-09-07T02:43:02.635Z,3.47
2022-09-07T02:46:18.782Z,2.95
2022-09-07T02:48:51.409Z,3.13
2022-09-07T02:51:23.364Z,3.30
2022-09-07T02:54:00.385Z,3.00
2022-09-07T02:57:08.785Z,3.28
2022-09-07T02:59:59.943Z,2.80
2022-09-07T03:02:33.775Z,2.67
2022-09-07T03:05:05.976Z,2.85
2022-09-07T03:07:43.505Z,3.85
2022-09-07T03:10:13.914Z,3.28
2022-09-07T03:12:42.005Z,3.38
2022-09-07T03:15:13.717Z,3.47
2022-09-07T03:17:40.962Z,2.80
2022-09-07T03:20:08.225Z,2.40
2022-09-07T03:22:34.957Z,2.50
2022-09-07T03:25:01.964Z,2.40
2022-09-07T03:27:28.590Z,2.70
2022-09-07T03:29:55.233Z,2.10
2022-09-07T03:32:21.819Z,2.28
2022-09-07T03:34:48.654Z,2.30
2022-09-07T03:37:15.297Z,3.17
2022-09-07T03:39:41.974Z,2.35
2022-09-07T03:42:08.606Z,2.47
2022-09-07T03:44:35.189Z,2.22
2022-09-07T03:47:01.766Z,2.30
2022-09-07T03:49:28.397Z,2.25
2022-09-07T03:51:54.985Z,2.80
2022-09-07T03:54:22.277Z,2.17
2022-09-07T03:56:48.845Z,2.78
2022-09-07T03:59:15.446Z,2.38
2022-09-07T04:01:42.173Z,2.45
2022-09-07T04:04:08.819Z,2.60
2022-09-07T04:06:35.441Z,2.47
2022-09-07T04:09:04.061Z,2.42
2022-09-07T04:11:31.664Z,2.95
2022-09-07T04:13:58.374Z,2.35
2022-09-07T04:16:26.579Z,2.58
2022-09-07T04:18:54.894Z,2.90
2022-09-07T04:21:22.582Z,2.40
2022-09-07T04:23:49.425Z,2.40
2022-09-07T04:26:20.191Z,2.80
2022-09-07T04:28:46.978Z,2.78
2022-09-07T04:31:15.892Z,3.08
2022-09-07T04:33:43.503Z,2.63
2022-09-07T04:36:10.235Z,2.50
2022-09-07T04:38:36.960Z,2.70
2022-09-07T04:41:09.542Z,2.95
2022-09-07T04:43:37.249Z,3.15
2022-09-07T04:46:27.619Z,3.00
2022-09-07T04:48:56.437Z,2.95
2022-09-07T04:51:24.593Z,2.80
2022-09-07T04:53:52.030Z,2.92
2022-09-07T04:56:19.757Z,2.85
2022-09-07T04:58:47.111Z,2.75
2022-09-07T05:01:19.697Z,3.08
2022-09-07T05:03:46.686Z,3.13
2022-09-07T05:06:13.706Z,3.40
2022-09-07T05:08:43.079Z,3.80
2022-09-07T05:11:10.769Z,3.58
2022-09-07T05:13:37.651Z,4.07
2022-09-07T05:16:17.350Z,4.07
2022-09-07T05:18:44.383Z,3.65
2022-09-07T05:21:12.754Z,3.70
2022-09-07T05:23:39.729Z,3.72
2022-09-07T05:26:06.581Z,4.40
2022-09-07T05:28:34.378Z,4.25
2022-09-07T05:31:21.189Z,4.00
2022-09-07T05:36:39.259Z,3.80
2022-09-07T05:39:06.792Z,4.53
2022-09-07T05:41:33.439Z,3.85
2022-09-07T05:46:46.813Z,4.18
2022-09-07T05:49:13.409Z,3.63
2022-09-07T05:51:40.054Z,4.03
2022-09-07T05:54:06.768Z,3.58
2022-09-07T05:56:36.383Z,2.90
2022-09-07T05:59:03.370Z,3.53
2022-09-07T06:01:30.007Z,3.53
2022-09-07T06:03:56.653Z,3.63
2022-09-07T06:06:23.426Z,3.10
2022-09-07T06:08:52.418Z,4.20
2022-09-07T06:11:21.110Z,4.35
2022-09-07T06:13:48.313Z,3.70
2022-09-07T06:16:15.449Z,4.03
2022-09-07T06:18:44.082Z,3.55
2022-09-07T06:21:11.506Z,4.13
2022-09-07T06:23:39.368Z,4.40
2022-09-07T06:26:06.260Z,3.08
2022-09-07T06:28:34.803Z,3.65
2022-09-07T06:31:09.106Z,3.83
2022-09-07T06:33:36.149Z,3.72
2022-09-07T06:36:05.266Z,3.17
2022-09-07T06:38:33.653Z,3.65
2022-09-07T06:43:51.173Z,3.70
2022-09-07T06:49:04.639Z,3.33
2022-09-07T06:51:32.230Z,2.63
2022-09-07T06:56:48.427Z,3.13
2022-09-07T06:59:15.059Z,2.60
2022-09-07T07:01:41.621Z,2.97
2022-09-07T07:04:08.238Z,2.58
2022-09-07T07:06:35.896Z,2.45
2022-09-07T07:09:02.947Z,2.78
2022-09-07T07:11:31.030Z,2.30
2022-09-07T07:13:58.130Z,2.70
2022-09-07T07:16:24.806Z,2.97
2022-09-07T07:18:54.962Z,3.00
2022-09-07T07:21:21.530Z,2.70
2022-09-07T07:23:52.219Z,2.78
2022-09-07T07:26:20.927Z,2.80
2022-09-07T07:29:05.239Z,3.45
2022-09-07T07:31:33.277Z,2.75
2022-09-07T07:33:59.959Z,2.38
2022-09-07T07:36:27.225Z,2.65
2022-09-07T07:44:17.535Z,2.50
2022-09-07T07:46:47.933Z,2.58
2022-09-07T07:49:14.573Z,2.33
2022-09-07T07:54:27.634Z,2.25
2022-09-07T07:56:54.183Z,2.60
2022-09-07T07:59:20.828Z,2.35
2022-09-07T08:01:47.467Z,2.70
2022-09-07T08:04:14.198Z,2.20
2022-09-07T08:06:43.567Z,1.95
2022-09-07T08:09:11.334Z,2.67
2022-09-07T08:11:40.233Z,2.30
2022-09-07T08:14:08.635Z,2.30
2022-09-07T08:16:36.305Z,2.42
2022-09-07T08:19:03.153Z,2.90
2022-09-07T08:21:29.925Z,2.78
2022-09-07T08:23:56.674Z,2.20
2022-09-07T08:26:23.230Z,1.70
2022-09-07T08:28:49.838Z,2.60
2022-09-07T08:31:17.135Z,1.80
2022-09-07T08:33:43.991Z,1.95
2022-09-07T08:36:12.907Z,1.85
2022-09-07T08:38:40.931Z,1.77
2022-09-07T08:41:26.745Z,2.22
2022-09-07T08:43:57.981Z,1.92
2022-09-07T08:46:29.793Z,2.83
2022-09-07T08:48:56.418Z,2.08
2022-09-07T08:51:32.684Z,1.83
2022-09-07T08:53:59.226Z,1.92
2022-09-07T08:56:33.661Z,1.88
2022-09-07T08:59:00.500Z,1.80
2022-09-07T09:01:31.653Z,2.38
2022-09-07T09:07:03.600Z,2.28
2022-09-07T09:09:39.774Z,1.58
2022-09-07T09:12:26.451Z,2.35
2022-09-07T09:15:02.004Z,1.90
2022-09-07T09:17:59.315Z,1.58
2022-09-07T09:20:58.779Z,1.60
2022-09-07T09:23:27.741Z,1.83
2022-09-07T09:26:00.156Z,1.73
2022-09-07T09:28:28.909Z,2.35
2022-09-07T09:30:58.537Z,2.20
2022-09-07T09:33:27.122Z,1.50
2022-09-07T09:35:57.423Z,1.88
2022-09-07T09:38:34.628Z,2.42
2022-09-07T09:41:05.337Z,2.13
2022-09-07T09:43:45.861Z,1.60
2022-09-07T09:46:24.677Z,2.42
2022-09-07T09:48:58.517Z,2.00
2022-09-07T09:54:24.874Z,2.00
2022-09-07T09:56:52.226Z,1.90
2022-09-07T10:05:34.467Z,2.03
2022-09-07T10:08:01.056Z,1.83
2022-09-07T10:10:28.084Z,1.83
2022-09-07T10:12:54.688Z,2.10
2022-09-07T10:15:33.672Z,2.60
2022-09-07T10:18:06.216Z,1.87
2022-09-07T10:20:35.433Z,2.28
2022-09-07T10:23:02.216Z,1.92
2022-09-07T10:25:32.432Z,2.40
2022-09-07T10:28:03.012Z,2.33
2022-09-07T10:30:31.088Z,2.53
2022-09-07T10:33:06.596Z,1.70
2022-09-07T10:35:45.465Z,2.03
2022-09-07T10:38:19.612Z,1.80
2022-09-07T10:41:08.541Z,1.80
2022-09-07T10:43:42.904Z,2.55
2022-09-07T10:49:14.021Z,1.83
2022-09-07T10:54:33.584Z,2.08
2022-09-07T10:57:09.416Z,2.30
2022-09-07T11:05:54.225Z,1.85
2022-09-07T11:08:27.356Z,2.47
2022-09-07T11:12:00.714Z,1.85
2022-09-07T11:14:16.801Z,2.42
2022-09-07T11:16:55.511Z,2.20
2022-09-07T11:19:37.981Z,2.10
2022-09-07T11:22:14.933Z,2.38
2022-09-07T11:25:29.065Z,2.20
2022-09-07T11:28:13.489Z,2.13
2022-09-07T11:30:49.899Z,1.85
2022-09-07T11:33:22.146Z,1.88
2022-09-07T11:36:13.396Z,1.88
2022-09-07T11:38:49.522Z,1.77
2022-09-07T11:41:39.944Z,1.90
2022-09-07T11:44:26.654Z,1.75
2022-09-07T11:47:03.229Z,1.40
2022-09-07T11:49:30.846Z,1.85
2022-09-07T11:51:57.373Z,1.95
2022-09-07T11:54:58.654Z,2.22
2022-09-07T11:57:51.379Z,2.13
2022-09-07T12:00:24.350Z,1.80
2022-09-07T12:03:00.554Z,1.55
2022-09-07T12:06:10.615Z,2.03
2022-09-07T12:08:40.065Z,1.33
2022-09-07T12:11:31.128Z,1.50
2022-09-07T12:14:25.572Z,1.52
2022-09-07T12:17:01.022Z,1.30
2022-09-07T12:19:27.803Z,2.22
2022-09-07T12:21:56.427Z,1.60
2022-09-07T12:24:33.484Z,1.88
2022-09-07T12:27:09.664Z,1.50
2022-09-07T12:29:36.361Z,1.52
2022-09-07T12:34:55.384Z,1.95
2022-09-07T12:37:37.519Z,1.40
2022-09-07T12:40:29.297Z,1.40
2022-09-07T12:43:16.819Z,1.45
2022-09-07T12:45:49.033Z,1.65
2022-09-07T12:48:15.654Z,1.67
2022-09-07T12:50:58.944Z,1.25
2022-09-07T12:53:40.488Z,1.27
2022-09-07T12:56:28.828Z,1.15
2022-09-07T12:59:01.423Z,1.00
2022-09-07T13:01:46.076Z,1.00
2022-09-07T13:04:37.698Z,1.65
2022-09-07T13:07:33.782Z,1.20
2022-09-07T13:10:27.030Z,1.00
2022-09-07T13:12:54.390Z,1.10
2022-09-07T13:15:38.363Z,1.10
2022-09-07T13:20:36.082Z,1.30
2022-09-07T13:23:22.263Z,1.10
2022-09-07T13:25:51.099Z,1.08
2022-09-07T13:28:50.190Z,1.17
2022-09-07T13:31:45.339Z,1.23
2022-09-07T13:34:33.696Z,1.33
2022-09-07T13:37:20.728Z,1.20
2022-09-07T13:39:49.140Z,0.85
2022-09-07T13:42:17.844Z,1.40
2022-09-07T13:44:51.263Z,0.93
2022-09-07T13:47:17.862Z,1.38
2022-09-07T13:50:07.490Z,1.08
2022-09-07T13:52:59.372Z,1.15
2022-09-07T13:58:15.057Z,1.05
2022-09-07T14:01:03.400Z,1.10
2022-09-07T14:03:47.907Z,1.33
2022-09-07T14:06:20.406Z,1.17
2022-09-07T14:08:54.223Z,1.00
2022-09-07T14:11:23.682Z,1.40
2022-09-07T14:14:09.439Z,1.20
2022-09-07T14:16:36.107Z,1.20
2022-09-07T14:19:08.802Z,1.42
2022-09-07T14:21:35.358Z,1.85
2022-09-07T14:24:03.477Z,1.17
2022-09-07T14:26:30.072Z,1.42
2022-09-07T14:28:56.977Z,1.40
2022-09-07T14:31:24.541Z,1.00
2022-09-07T14:33:53.227Z,1.40
2022-09-07T14:36:42.388Z,1.23
2022-09-07T14:39:08.523Z,1.23
2022-09-07T14:41:38.482Z,0.98
2022-09-07T14:44:05.086Z,1.38
2022-09-07T14:46:35.781Z,1.10
2022-09-07T14:49:04.405Z,1.13
2022-09-07T14:51:36.225Z,1.20
2022-09-07T14:54:07.280Z,1.80
2022-09-07T14:56:36.220Z,1.10
2022-09-07T14:59:20.913Z,1.80
2022-09-07T15:01:47.524Z,1.50
2022-09-07T15:04:19.257Z,1.10
2022-09-07T15:07:02.650Z,1.30
2022-09-07T15:09:37.160Z,1.23
2022-09-07T15:12:11.064Z,1.20
2022-09-07T15:14:37.623Z,1.33
2022-09-07T15:19:50.829Z,1.40
2022-09-07T15:22:22.054Z,1.50
2022-09-07T15:24:49.517Z,2.28
2022-09-07T15:27:20.406Z,1.20
2022-09-07T15:29:47.190Z,1.83
2022-09-07T15:32:19.023Z,1.30
2022-09-07T15:34:45.665Z,1.10
2022-09-07T15:39:58.870Z,1.20
2022-09-07T15:45:13.175Z,1.27
2022-09-07T15:47:47.158Z,1.10
2022-09-07T15:50:17.567Z,1.10
2022-09-07T15:52:46.559Z,1.50
2022-09-07T15:55:14.440Z,1.40
2022-09-07T15:57:51.317Z,1.65
2022-09-07T16:00:19.671Z,1.40
2022-09-07T16:03:04.820Z,1.95
2022-09-07T16:05:32.007Z,1.48
2022-09-07T16:10:53.559Z,1.40
2022-09-07T16:13:20.648Z,1.10
2022-09-07T16:15:47.937Z,1.08
2022-09-07T16:18:17.146Z,1.10
2022-09-07T16:20:44.291Z,1.15
2022-09-07T16:23:15.825Z,1.20
2022-09-07T16:25:55.026Z,1.10
2022-09-07T16:28:21.566Z,1.35
2022-09-07T16:30:48.325Z,1.33
2022-09-07T16:33:15.225Z,1.33
2022-09-07T16:35:41.915Z,1.00
2022-09-07T16:40:55.049Z,1.13
2022-09-07T16:43:21.629Z,1.13
2022-09-07T16:46:03.951Z,1.20
2022-09-07T16:48:31.996Z,1.52
2022-09-07T16:51:01.890Z,1.35
2022-09-07T16:53:29.954Z,1.77
2022-09-07T16:56:06.961Z,1.75
2022-09-07T16:58:36.784Z,1.00
2022-09-07T17:01:08.022Z,1.30
2022-09-07T17:03:35.753Z,1.20
2022-09-07T17:06:03.122Z,1.40
2022-09-07T17:08:29.840Z,1.88
2022-09-07T17:11:08.541Z,1.60
2022-09-07T17:13:36.501Z,1.60
2022-09-07T17:16:09.807Z,1.40
2022-09-07T17:21:23.431Z,1.38
2022-09-07T17:23:55.404Z,1.20
2022-09-07T17:26:26.058Z,1.42
2022-09-07T17:28:54.150Z,1.42
2022-09-07T17:34:10.066Z,1.08
2022-09-07T17:36:36.633Z,1.35
2022-09-07T17:39:19.259Z,1.35
2022-09-07T17:41:47.718Z,1.42
2022-09-07T17:44:14.313Z,1.40
2022-09-07T17:46:40.887Z,1.30
2022-09-07T17:49:10.357Z,1.63
2022-09-07T17:51:37.162Z,1.45
2022-09-07T17:54:12.320Z,1.30
2022-09-07T17:56:39.671Z,1.75
2022-09-07T18:01:54.133Z,1.20
2022-09-07T18:04:21.199Z,1.40
2022-09-07T18:06:47.813Z,1.35
2022-09-07T18:09:14.567Z,1.10
2022-09-07T18:11:45.433Z,1.63
2022-09-07T18:14:14.199Z,1.55
2022-09-07T18:16:41.016Z,1.58
2022-09-07T18:19:08.691Z,1.75
2022-09-07T18:21:36.615Z,1.30
2022-09-07T18:24:05.837Z,1.40
2022-09-07T18:26:33.194Z,1.52
2022-09-07T18:29:03.624Z,1.77
2022-09-07T18:31:30.917Z,1.23
2022-09-07T18:33:57.967Z,1.20
2022-09-07T18:36:25.177Z,1.10
2022-09-07T18:38:52.007Z,1.17
2022-09-07T18:41:18.933Z,1.55
2022-09-07T18:43:47.001Z,1.20
2022-09-07T18:46:21.412Z,1.50
2022-09-07T18:48:48.227Z,1.38
2022-09-07T18:51:15.213Z,1.60
2022-09-07T18:53:42.159Z,1.35
2022-09-07T18:56:12.812Z,1.30
2022-09-07T18:58:39.765Z,1.45
2022-09-07T19:01:08.149Z,1.73
2022-09-07T19:03:35.653Z,1.70
2022-09-07T19:06:05.323Z,1.58
2022-09-07T19:08:33.000Z,1.50
2022-09-07T19:11:07.036Z,1.13
2022-09-07T19:13:34.274Z,1.88
2022-09-07T19:16:15.464Z,1.13
2022-09-07T19:18:52.739Z,1.75
2022-09-07T19:21:21.530Z,1.23
2022-09-07T19:23:59.455Z,1.52
2022-09-07T19:26:27.447Z,1.38
2022-09-07T19:28:55.580Z,1.40
2022-09-07T19:31:22.287Z,1.25
2022-09-07T19:33:53.714Z,1.20
2022-09-07T19:36:20.268Z,1.13
2022-09-07T19:38:48.676Z,1.38
2022-09-07T19:41:17.617Z,1.27
2022-09-07T19:43:44.811Z,1.13
2022-09-07T19:46:11.599Z,1.73
2022-09-07T19:48:38.209Z,1.30
2022-09-07T19:51:06.285Z,1.50
2022-09-07T19:53:34.081Z,1.42
2022-09-07T19:56:05.711Z,1.30
2022-09-07T19:58:33.787Z,1.35
2022-09-07T20:01:06.503Z,1.30
2022-09-07T20:06:00.122Z,1.70
2022-09-07T20:08:26.653Z,1.30
2022-09-07T20:10:53.200Z,1.45
2022-09-07T20:13:19.866Z,1.30
2022-09-07T20:15:46.450Z,1.70
2022-09-07T20:18:12.981Z,1.70
2022-09-07T20:20:39.552Z,1.50
2022-09-07T20:23:06.113Z,1.50
2022-09-07T20:25:33.214Z,1.25
2022-09-07T20:27:59.745Z,1.30
2022-09-07T20:30:27.493Z,1.30
2022-09-07T20:32:54.031Z,1.63
2022-09-07T20:35:20.606Z,1.20
2022-09-07T20:37:47.153Z,1.75
2022-09-07T20:40:14.089Z,1.40
2022-09-07T20:42:40.787Z,1.30
2022-09-07T20:45:08.157Z,1.70
2022-09-07T20:47:34.988Z,1.40
2022-09-07T20:50:01.566Z,1.65
2022-09-07T20:52:28.161Z,1.63
2022-09-07T20:54:54.718Z,1.60
2022-09-07T20:57:21.232Z,1.30
2022-09-07T20:59:47.838Z,1.20
2022-09-07T21:02:14.431Z,1.35
2022-09-07T21:04:42.253Z,1.73
2022-09-07T21:07:08.798Z,1.48
2022-09-07T21:09:35.428Z,1.40
2022-09-07T21:12:02.124Z,1.30
2022-09-07T21:14:28.689Z,1.02
2022-09-07T21:16:55.208Z,1.70
2022-09-07T21:19:21.761Z,1.67
2022-09-07T21:21:48.313Z,1.27
2022-09-07T21:24:18.166Z,1.85
2022-09-07T21:26:44.738Z,1.55
2022-09-07T21:29:18.668Z,2.00
2022-09-07T21:31:45.433Z,1.48
2022-09-07T21:34:12.082Z,1.00
2022-09-07T21:36:38.632Z,1.50
2022-09-07T21:39:05.783Z,1.30
2022-09-07T21:41:32.657Z,1.40
2022-09-07T21:44:01.507Z,1.35
2022-09-07T21:46:29.294Z,1.35
2022-09-07T21:48:56.648Z,1.40
2022-09-07T21:51:23.528Z,1.30
2022-09-07T21:53:58.201Z,1.30
2022-09-07T21:56:24.836Z,1.02
2022-09-07T21:58:58.955Z,1.70
2022-09-07T22:01:27.139Z,1.48
2022-09-07T22:03:58.719Z,1.20
2022-09-07T22:06:27.297Z,1.10
2022-09-07T22:08:54.255Z,2.08
2022-09-07T22:11:22.489Z,1.55
2022-09-07T22:13:49.240Z,1.90
2022-09-07T22:16:16.110Z,2.22
2022-09-07T22:18:44.548Z,1.70
2022-09-07T22:21:11.040Z,1.83
2022-09-07T22:23:39.391Z,1.98
2022-09-07T22:26:06.649Z,1.73
2022-09-07T22:28:33.414Z,1.95
2022-09-07T22:31:19.658Z,1.45
2022-09-07T22:33:47.143Z,1.45
2022-09-07T22:36:16.570Z,1.60
2022-09-07T22:38:44.490Z,1.75
2022-09-07T22:41:15.220Z,1.27
2022-09-07T22:43:42.710Z,1.77
2022-09-07T22:46:09.677Z,1.58
2022-09-07T22:48:36.244Z,1.63
2022-09-07T22:51:04.130Z,1.85
2022-09-07T22:53:32.655Z,1.73
2022-09-07T22:55:59.587Z,1.75
2022-09-07T22:58:29.053Z,1.77
2022-09-07T23:00:59.491Z,1.60
2022-09-07T23:03:27.870Z,1.65
2022-09-07T23:05:55.282Z,1.77
2022-09-07T23:08:21.819Z,2.15
2022-09-07T23:10:48.441Z,1.30
2022-09-07T23:13:16.814Z,2.00
2022-09-07T23:15:43.637Z,1.50
2022-09-07T23:18:17.169Z,1.90
2022-09-07T23:20:44.078Z,1.85
2022-09-07T23:23:10.967Z,2.10
2022-09-07T23:25:41.405Z,1.90
2022-09-07T23:28:10.021Z,2.00
2022-09-07T23:30:36.674Z,2.30
2022-09-07T23:33:03.597Z,2.88
2022-09-07T23:35:30.220Z,2.53
2022-09-07T23:37:56.887Z,2.83
2022-09-07T23:40:23.906Z,2.40
2022-09-07T23:42:50.449Z,3.25
2022-09-07T23:45:17.061Z,2.97
2022-09-07T23:47:43.967Z,3.28
2022-09-07T23:50:10.944Z,3.08
2022-09-07T23:52:37.859Z,3.58
2022-09-07T23:55:04.852Z,2.80
2022-09-07T23:57:31.618Z,3.17
2022-09-07T23:59:58.358Z,3.42
